Time;durP1;ratioP1;P1;durP2;ratioP2;P2;SDS_P1;SDS_P2;PMS_P1;PMS_P2;Temp;Humidity;BMP_temperature;BMP_pressure;BME280_temperature;BME280_humidity;BME280_pressure;Samples;Min_cycle;Max_cycle;Signal;HPM_P1;HPM_P2
2022/10/13 00:01:53;;;;;;;;;;;;;;;17.81;51.45;101616.44;5061143;28;1166;-48
2022/10/13 00:04:18;;;;;;;;;;;;;;;16.87;53.69;101615.63;5057989;28;1213;-49
2022/10/13 00:06:43;;;;;;;;;;;;;;;15.39;55.54;101613.84;5059608;28;1977;-49
2022/10/13 00:09:09;;;;;;;;;;;;;;;16.50;51.18;101614.31;5078349;28;1173;-51
2022/10/13 00:11:34;;;;;;;;;;;;;;;17.57;51.37;101613.16;5078060;28;1225;-46
2022/10/13 00:14:00;;;;;;;;;;;;;;;17.09;50.28;101612.91;5078122;28;1216;-47
2022/10/13 00:16:27;;;;;;;;;;;;;;;17.25;50.24;101611.16;5077467;28;1122;-49
2022/10/13 00:18:53;;;;;;;;;;;;;;;17.38;50.56;101615.47;5077608;28;1173;-46
2022/10/13 00:21:19;;;;;;;;;;;;;;;17.04;49.55;101608.19;5078223;28;1126;-48
2022/10/13 00:23:47;;;;;;;;;;;;;;;18.50;49.46;101605.69;5077893;28;1225;-51
2022/10/13 00:26:17;;;;;;;;;;;;;;;17.51;50.14;101606.78;5077923;28;1968;-48
2022/10/13 00:28:42;;;;;;;;;;;;;;;17.23;49.21;101608.69;5077838;28;1154;-49
2022/10/13 00:31:17;;;;;;;;;;;;;;;17.19;47.99;101609.47;5077529;28;882;-49
2022/10/13 00:33:43;;;;;;;;;;;;;;;17.31;48.81;101621.16;5077937;28;1190;-46
2022/10/13 00:36:08;;;;;;;;;;;;;;;17.75;49.75;101607.31;5077910;28;1154;-51
2022/10/13 00:38:34;;;;;;;;;;;;;;;17.36;49.05;101593.72;5077765;28;1197;-50
2022/10/13 00:40:59;;;;;;;;;;;;;;;17.08;48.55;101606.59;5077645;28;1194;-50
2022/10/13 00:43:26;;;;;;;;;;;;;;;17.26;48.13;101608.19;5077100;28;1142;-48
2022/10/13 00:45:51;;;;;;;;;;;;;;;17.88;49.38;101608.78;5074502;28;1905;-46
2022/10/13 00:48:21;;;;;;;;;;;;;;;17.41;48.82;101603.94;5057264;28;1119;-46
2022/10/13 00:50:47;;;;;;;;;;;;;;;17.20;47.84;101602.88;5067536;28;1151;-50
2022/10/13 00:53:12;;;;;;;;;;;;;;;17.89;48.73;101602.19;5063240;28;1031;-50
2022/10/13 00:55:37;;;;;;;;;;;;;;;17.39;48.70;101595.94;5058852;28;1503;-51
2022/10/13 00:58:04;;;;;;;;;;;;;;;17.13;47.91;101588.53;5076147;28;1178;-51
2022/10/13 01:00:29;;;;;;;;;;;;;;;17.68;48.20;101587.41;5055970;28;1222;-49
2022/10/13 01:02:54;;;;;;;;;;;;;;;17.69;49.04;101593.75;5057749;28;1244;-47
2022/10/13 01:05:20;;;;;;;;;;;;;;;17.36;48.22;101595.63;5057052;28;1902;-47
2022/10/13 01:07:47;;;;;;;;;;;;;;;17.17;47.94;101601.47;5067116;28;870;-50
2022/10/13 01:10:33;;;;;;;;;;;;;;;18.19;47.97;101599.94;5056801;28;1198;-49
2022/10/13 01:12:59;;;;;;;;;;;;;;;17.42;48.53;101600.91;5056978;28;1404;-46
2022/10/13 01:15:50;;;;;;;;;;;;;;;17.24;47.62;101595.78;5056714;28;1181;-49
2022/10/13 01:18:16;;;;;;;;;;;;;;;17.12;47.05;101598.66;5055410;28;1118;-46
2022/10/13 01:20:46;;;;;;;;;;;;;;;17.78;48.21;101587.53;5057119;28;1122;-49
2022/10/13 01:23:11;;;;;;;;;;;;;;;17.26;48.23;101597.19;5057272;28;1134;-50
2022/10/13 01:25:55;;;;;;;;;;;;;;;17.44;48.30;101593.22;5056498;28;1981;-49
2022/10/13 01:28:30;;;;;;;;;;;;;;;17.74;48.87;101591.03;5055700;28;1134;-46
2022/10/13 01:30:57;;;;;;;;;;;;;;;17.30;48.42;101593.91;5056005;28;1083;-46
2022/10/13 01:33:29;;;;;;;;;;;;;;;17.16;47.75;101593.50;5071801;28;1186;-48
2022/10/13 01:35:55;;;;;;;;;;;;;;;18.09;48.13;101598.78;5038083;28;1229;-45
2022/10/13 01:38:33;;;;;;;;;;;;;;;17.40;48.47;101592.13;5035673;28;1178;-48
2022/10/13 01:41:17;;;;;;;;;;;;;;;17.15;47.66;101587.16;5049778;28;1193;-48
2022/10/13 01:43:48;;;;;;;;;;;;;;;18.07;47.65;101595.47;5044340;28;887;-50
2022/10/13 01:46:13;;;;;;;;;;;;;;;17.34;48.49;101581.31;5057721;28;1914;-51
2022/10/13 01:48:39;;;;;;;;;;;;;;;17.21;47.39;101588.06;5036330;28;1225;-50
2022/10/13 01:51:05;;;;;;;;;;;;;;;18.36;48.07;101586.03;5036297;28;1138;-49
2022/10/13 01:53:30;;;;;;;;;;;;;;;17.56;48.59;101578.53;5035493;28;1123;-50
2022/10/13 01:55:57;;;;;;;;;;;;;;;17.23;47.97;101581.19;5045083;28;894;-48
2022/10/13 01:58:22;;;;;;;;;;;;;;;18.14;48.02;101589.75;5058029;28;1265;-52
2022/10/13 02:00:51;;;;;;;;;;;;;;;17.60;48.44;101585.16;5070001;28;1193;-48
2022/10/13 02:03:19;;;;;;;;;;;;;;;17.26;48.07;101594.44;5076228;28;1209;-47
2022/10/13 02:05:50;;;;;;;;;;;;;;;18.26;48.27;101593.13;5074547;28;1971;-50
2022/10/13 02:08:16;;;;;;;;;;;;;;;17.51;48.67;101589.47;5075578;28;909;-48
2022/10/13 02:10:41;;;;;;;;;;;;;;;17.34;48.11;101589.56;5076089;28;1154;-49
2022/10/13 02:13:07;;;;;;;;;;;;;;;17.22;47.38;101592.44;5076521;28;1138;-47
2022/10/13 02:15:48;;;;;;;;;;;;;;;17.26;47.29;101593.59;5074462;28;1194;-48
2022/10/13 02:18:14;;;;;;;;;;;;;;;17.55;48.29;101596.91;5058008;28;1123;-49
2022/10/13 02:20:40;;;;;;;;;;;;;;;17.18;47.65;101600.41;5075844;28;1225;-51
2022/10/13 02:23:10;;;;;;;;;;;;;;;17.13;47.14;101602.25;5074903;28;1222;-51
2022/10/13 02:25:36;;;;;;;;;;;;;;;17.27;47.53;101609.81;5075740;28;1906;-52
2022/10/13 02:28:01;;;;;;;;;;;;;;;17.53;48.00;101603.75;5074995;28;1115;-49
2022/10/13 02:30:31;;;;;;;;;;;;;;;17.45;48.56;101605.06;5076181;28;1146;-51
2022/10/13 02:32:57;;;;;;;;;;;;;;;17.98;49.55;101608.06;5074923;28;914;-49
2022/10/13 02:35:22;;;;;;;;;;;;;;;15.58;54.65;101616.34;5075560;28;1174;-51
2022/10/13 02:37:48;;;;;;;;;;;;;;;16.85;50.23;101615.06;5076437;28;1201;-49
2022/10/13 02:40:13;;;;;;;;;;;;;;;17.94;49.86;101612.44;5077727;28;1154;-47
2022/10/13 02:42:39;;;;;;;;;;;;;;;17.24;49.64;101615.84;5079575;28;1153;-44
2022/10/13 02:45:04;;;;;;;;;;;;;;;17.14;48.37;101623.13;5079683;28;1970;-47
2022/10/13 02:47:30;;;;;;;;;;;;;;;17.03;47.53;101609.28;5063226;28;1135;-47
2022/10/13 02:49:56;;;;;;;;;;;;;;;17.88;48.93;101613.44;5059868;28;1163;-50
2022/10/13 02:52:21;;;;;;;;;;;;;;;17.23;48.91;101616.09;5059561;28;1217;-48
2022/10/13 02:54:47;;;;;;;;;;;;;;;17.12;47.94;101617.06;5059009;28;1220;-46
2022/10/13 02:57:12;;;;;;;;;;;;;;;17.49;48.36;101616.38;5066035;28;1028;-45
2022/10/13 02:59:42;;;;;;;;;;;;;;;17.48;49.06;101614.72;5079494;28;1240;-46
2022/10/13 03:02:07;;;;;;;;;;;;;;;17.22;48.06;101626.28;5078196;28;1158;-48
2022/10/13 03:04:32;;;;;;;;;;;;;;;17.04;47.43;101624.69;5078457;28;1906;-48
2022/10/13 03:07:01;;;;;;;;;;;;;;;17.94;48.11;101623.44;5064890;28;1166;-48
2022/10/13 03:09:27;;;;;;;;;;;;;;;17.35;48.09;101627.78;5078760;28;1130;-49
2022/10/13 03:11:52;;;;;;;;;;;;;;;17.05;47.79;101625.50;5059826;28;1089;-55
2022/10/13 03:14:18;;;;;;;;;;;;;;;17.97;47.98;101611.91;5071214;28;1895;-55
2022/10/13 03:16:43;;;;;;;;;;;;;;;17.33;48.05;101629.13;5079114;28;1249;-54
2022/10/13 03:19:08;;;;;;;;;;;;;;;17.11;47.56;101621.75;5078298;28;1127;-54
2022/10/13 03:21:34;;;;;;;;;;;;;;;17.08;47.62;101627.75;5078875;28;1142;-52
2022/10/13 03:24:00;;;;;;;;;;;;;;;18.08;48.09;101619.16;5078719;28;1110;-55
2022/10/13 03:26:25;;;;;;;;;;;;;;;17.31;48.58;101621.16;5078786;28;1983;-52
2022/10/13 03:28:50;;;;;;;;;;;;;;;17.43;48.06;101624.59;5078471;28;1150;-59
2022/10/13 03:31:16;;;;;;;;;;;;;;;17.83;48.31;101616.16;5065666;28;1193;-54
2022/10/13 03:33:42;;;;;;;;;;;;;;;17.24;48.50;101607.59;5077516;28;1214;-54
2022/10/13 03:36:07;;;;;;;;;;;;;;;17.14;47.32;101610.25;5078996;28;1284;-55
2022/10/13 03:38:33;;;;;;;;;;;;;;;17.05;46.77;101604.34;5078415;28;1099;-55
2022/10/13 03:41:05;;;;;;;;;;;;;;;17.84;48.20;101601.28;5078764;28;1119;-55
2022/10/13 03:43:31;;;;;;;;;;;;;;;17.28;47.94;101606.00;5078238;28;1954;-56
2022/10/13 03:45:56;;;;;;;;;;;;;;;18.62;47.74;101600.75;5074235;28;1984;-50
2022/10/13 03:48:22;;;;;;;;;;;;;;;14.78;57.20;101593.44;5058414;28;1096;-50
2022/10/13 03:50:47;;;;;;;;;;;;;;;17.78;51.23;101582.00;5057709;28;1183;-50
2022/10/13 03:53:14;;;;;;;;;;;;;;;17.77;51.89;101587.78;5063034;28;1142;-50
2022/10/13 03:55:40;;;;;;;;;;;;;;;15.57;56.21;101576.31;5078033;28;1111;-51
2022/10/13 03:58:06;;;;;;;;;;;;;;;16.69;50.59;101581.06;5078448;28;1138;-56
2022/10/13 04:00:33;;;;;;;;;;;;;;;16.68;49.30;101577.50;5053201;28;1234;-56
2022/10/13 04:02:59;;;;;;;;;;;;;;;17.84;50.75;101576.53;5039971;28;1183;-57
2022/10/13 04:05:25;;;;;;;;;;;;;;;17.33;50.88;101579.66;5057533;28;1984;-56
2022/10/13 04:07:50;;;;;;;;;;;;;;;17.10;49.30;101582.44;5061637;28;1257;-55
2022/10/13 04:10:25;;;;;;;;;;;;;;;17.61;49.87;101575.78;5078047;28;1090;-49
2022/10/13 04:12:51;;;;;;;;;;;;;;;17.41;50.06;101573.69;5077234;28;1770;-55
2022/10/13 04:15:16;;;;;;;;;;;;;;;17.19;48.95;101569.06;5057260;28;1202;-52
2022/10/13 04:17:42;;;;;;;;;;;;;;;16.95;48.38;101571.25;5071604;28;1079;-55
2022/10/13 04:20:07;;;;;;;;;;;;;;;18.47;48.94;101572.06;5078016;28;1107;-54
2022/10/13 04:22:33;;;;;;;;;;;;;;;17.49;50.02;101569.63;5077586;28;1194;-56
2022/10/13 04:24:58;;;;;;;;;;;;;;;17.28;49.13;101563.94;5059180;28;1909;-57
2022/10/13 04:27:25;;;;;;;;;;;;;;;17.18;48.01;101558.31;5062925;28;1238;-55
2022/10/13 04:29:51;;;;;;;;;;;;;;;17.60;48.81;101568.66;5060171;28;1182;-53
2022/10/13 04:32:16;;;;;;;;;;;;;;;17.43;49.33;101580.59;5068145;28;1002;-54
2022/10/13 04:34:42;;;;;;;;;;;;;;;17.27;48.12;101576.03;5077384;28;1117;-53
2022/10/13 04:37:07;;;;;;;;;;;;;;;18.07;48.67;101587.22;5077321;28;1167;-54
2022/10/13 04:39:33;;;;;;;;;;;;;;;17.70;49.02;101581.66;5076315;28;1107;-55
2022/10/13 04:41:58;;;;;;;;;;;;;;;17.23;48.63;101574.88;5065031;28;1111;-55
2022/10/13 04:44:23;;;;;;;;;;;;;;;18.51;48.64;101583.38;5075969;28;1785;-55
2022/10/13 04:46:49;;;;;;;;;;;;;;;17.69;49.39;101582.75;5076618;28;1987;-53
2022/10/13 04:49:15;;;;;;;;;;;;;;;17.43;48.23;101586.09;5063573;28;1166;-54
2022/10/13 04:51:40;;;;;;;;;;;;;;;17.27;47.36;101582.34;5056890;28;1214;-52
2022/10/13 04:54:06;;;;;;;;;;;;;;;17.25;47.66;101594.69;5066535;28;1143;-52
2022/10/13 04:56:31;;;;;;;;;;;;;;;17.97;48.59;101594.56;5076643;28;1194;-56
2022/10/13 04:59:01;;;;;;;;;;;;;;;17.38;48.54;101588.78;5076523;28;1206;-55
2022/10/13 05:01:26;;;;;;;;;;;;;;;18.58;48.04;101589.47;5076975;28;1115;-55
2022/10/13 05:03:53;;;;;;;;;;;;;;;14.56;57.45;101594.00;5076926;28;1075;-54
2022/10/13 05:06:19;;;;;;;;;;;;;;;17.87;51.29;101601.63;5076930;28;1905;-51
2022/10/13 05:08:46;;;;;;;;;;;;;;;17.38;52.59;101599.78;5076615;28;1158;-52
2022/10/13 05:11:15;;;;;;;;;;;;;;;15.81;57.00;101603.63;5077066;28;1185;-54
2022/10/13 05:13:41;;;;;;;;;;;;;;;18.70;51.20;101608.53;5076229;28;2344;-52
2022/10/13 05:16:10;;;;;;;;;;;;;;;15.12;58.96;101607.25;5062509;28;1265;-52
2022/10/13 05:18:36;;;;;;;;;;;;;;;17.24;54.80;101609.53;5069377;28;1119;-52
2022/10/13 05:21:07;;;;;;;;;;;;;;;18.00;52.88;101613.31;5065658;28;1246;-51
2022/10/13 05:23:36;;;;;;;;;;;;;;;15.26;57.89;101608.63;5063426;28;1128;-48
2022/10/13 05:26:02;;;;;;;;;;;;;;;18.05;53.85;101614.19;5076555;28;1910;-52
2022/10/13 05:28:27;;;;;;;;;;;;;;;17.70;52.78;101607.25;5069334;28;1166;-53
2022/10/13 05:30:53;;;;;;;;;;;;;;;17.35;51.00;101616.78;5056757;28;1221;-55
2022/10/13 05:33:18;;;;;;;;;;;;;;;17.15;49.77;101616.56;5066488;28;1183;-53
2022/10/13 05:35:44;;;;;;;;;;;;;;;17.06;48.69;101619.75;5075673;28;1181;-53
2022/10/13 05:38:09;;;;;;;;;;;;;;;18.26;47.67;101619.84;5076175;28;1127;-50
2022/10/13 05:40:35;;;;;;;;;;;;;;;17.68;49.08;101609.41;5074112;28;1051;-53
2022/10/13 05:43:02;;;;;;;;;;;;;;;17.37;49.97;101620.09;5073924;28;1839;-51
2022/10/13 05:45:27;;;;;;;;;;;;;;;17.20;50.50;101622.13;5060721;28;1972;-52
2022/10/13 05:47:53;;;;;;;;;;;;;;;17.12;50.84;101623.41;5057492;28;1080;-53
2022/10/13 05:50:18;;;;;;;;;;;;;;;16.97;51.38;101626.81;5075930;28;1183;-59
2022/10/13 05:52:44;;;;;;;;;;;;;;;16.87;51.78;101621.13;5058428;28;1175;-58
2022/10/13 05:55:09;;;;;;;;;;;;;;;16.82;51.93;101629.31;5076345;28;1147;-57
2022/10/13 05:57:55;;;;;;;;;;;;;;;16.74;52.31;101633.31;5070198;28;1138;-59
2022/10/13 06:00:21;;;;;;;;;;;;;;;16.65;52.66;101638.44;5075116;28;1277;-55
2022/10/13 06:03:02;;;;;;;;;;;;;;;16.54;52.96;101640.19;5075777;28;1150;-57
2022/10/13 06:05:27;;;;;;;;;;;;;;;16.45;53.20;101627.97;5059565;28;1970;-58
2022/10/13 06:07:54;;;;;;;;;;;;;;;16.42;53.35;101636.72;5055952;28;1237;-55
2022/10/13 06:10:20;;;;;;;;;;;;;;;16.37;53.49;101633.91;5055674;28;1391;-58
2022/10/13 06:12:45;;;;;;;;;;;;;;;16.35;53.41;101631.38;5076112;28;1111;-58
2022/10/13 06:15:11;;;;;;;;;;;;;;;16.24;53.58;101632.31;5061534;28;2251;-56
2022/10/13 06:17:37;;;;;;;;;;;;;;;16.21;53.60;101627.31;5055439;28;1320;-55
2022/10/13 06:20:04;;;;;;;;;;;;;;;16.18;53.72;101627.84;5066936;28;1127;-57
2022/10/13 06:22:30;;;;;;;;;;;;;;;16.11;53.84;101624.44;5075349;28;944;-58
2022/10/13 06:24:56;;;;;;;;;;;;;;;16.07;53.98;101624.94;5062139;28;1914;-57
2022/10/13 06:27:21;;;;;;;;;;;;;;;17.03;52.18;101625.78;5074873;28;1123;-56
2022/10/13 06:29:51;;;;;;;;;;;;;;;17.03;51.96;101622.19;5054773;28;1076;-56
2022/10/13 06:32:17;;;;;;;;;;;;;;;16.58;53.41;101616.63;5055328;28;1349;-55
2022/10/13 06:34:42;;;;;;;;;;;;;;;16.38;53.73;101617.19;5073471;28;1293;-56
2022/10/13 06:37:08;;;;;;;;;;;;;;;16.31;53.86;101619.25;5074953;28;1454;-57
2022/10/13 06:39:34;;;;;;;;;;;;;;;16.21;54.23;101624.59;5073894;28;1206;-58
2022/10/13 06:42:02;;;;;;;;;;;;;;;16.16;54.37;101625.34;5063764;28;1111;-56
2022/10/13 06:44:36;;;;;;;;;;;;;;;16.04;54.71;101613.63;5074997;28;2036;-58
2022/10/13 06:47:02;;;;;;;;;;;;;;;16.68;53.45;101621.44;5067507;28;1957;-57
2022/10/13 06:49:27;;;;;;;;;;;;;;;17.24;52.01;101624.09;5076058;28;1139;-55
2022/10/13 06:51:53;;;;;;;;;;;;;;;16.60;53.64;101622.69;5075792;28;1166;-57
2022/10/13 06:54:18;;;;;;;;;;;;;;;16.41;54.08;101624.91;5075372;28;1194;-59
2022/10/13 06:56:44;;;;;;;;;;;;;;;16.25;54.56;101621.09;5065880;28;1083;-56
2022/10/13 06:59:09;;;;;;;;;;;;;;;16.17;54.67;101631.66;5061403;28;1197;-58
2022/10/13 07:01:36;;;;;;;;;;;;;;;16.05;55.03;101632.56;5075486;28;1205;-57
2022/10/13 07:04:06;;;;;;;;;;;;;;;16.07;55.07;101632.31;5059271;28;1098;-58
2022/10/13 07:06:32;;;;;;;;;;;;;;;17.56;51.51;101628.03;5058891;28;1972;-59
2022/10/13 07:08:57;;;;;;;;;;;;;;;16.73;53.68;101638.00;5075291;28;1210;-58
2022/10/13 07:11:23;;;;;;;;;;;;;;;16.42;54.58;101628.47;5075580;28;1083;-56
2022/10/13 07:13:49;;;;;;;;;;;;;;;16.23;54.73;101623.25;5073350;28;1940;-57
2022/10/13 07:16:15;;;;;;;;;;;;;;;16.17;54.99;101617.94;5075429;28;970;-57
2022/10/13 07:18:41;;;;;;;;;;;;;;;16.11;54.99;101622.50;5075270;28;1237;-57
2022/10/13 07:21:07;;;;;;;;;;;;;;;17.21;52.61;101615.53;5074718;28;1095;-57
2022/10/13 07:23:32;;;;;;;;;;;;;;;16.92;53.34;101619.31;5075180;28;1213;-57
2022/10/13 07:25:58;;;;;;;;;;;;;;;16.50;54.23;101616.25;5074438;28;1977;-58
2022/10/13 07:28:24;;;;;;;;;;;;;;;16.30;54.96;101612.13;5058579;28;1249;-55
2022/10/13 07:30:49;;;;;;;;;;;;;;;16.23;55.06;101605.97;5059832;28;1127;-55
2022/10/13 07:33:14;;;;;;;;;;;;;;;17.36;52.32;101615.72;5061517;28;1257;-56
2022/10/13 07:35:41;;;;;;;;;;;;;;;16.94;53.37;101610.81;5077908;28;1210;-54
2022/10/13 07:38:06;;;;;;;;;;;;;;;16.60;54.11;101602.66;5078624;28;1233;-56
2022/10/13 07:40:32;;;;;;;;;;;;;;;16.40;54.57;101601.28;5069281;28;1130;-57
2022/10/13 07:42:57;;;;;;;;;;;;;;;16.28;54.85;101610.69;5064625;28;1909;-58
2022/10/13 07:45:23;;;;;;;;;;;;;;;16.20;55.09;101607.31;5077781;28;1905;-57
2022/10/13 07:47:48;;;;;;;;;;;;;;;16.12;54.87;101604.13;5059317;28;1229;-56
2022/10/13 07:50:14;;;;;;;;;;;;;;;16.96;53.54;101602.31;5058198;28;1206;-56
2022/10/13 07:52:39;;;;;;;;;;;;;;;17.21;52.56;101604.56;5058248;28;1309;-56
2022/10/13 07:55:07;;;;;;;;;;;;;;;16.66;54.47;101607.16;5057822;28;1297;-56
2022/10/13 07:57:32;;;;;;;;;;;;;;;16.46;54.85;101606.84;5063387;28;1403;-58
2022/10/13 07:59:57;;;;;;;;;;;;;;;16.35;54.98;101603.94;5060307;28;1080;-56
2022/10/13 08:02:23;;;;;;;;;;;;;;;16.25;55.09;101601.06;5059776;28;1101;-58
2022/10/13 08:04:48;;;;;;;;;;;;;;;16.28;54.92;101595.06;5072018;28;1976;-57
2022/10/13 08:07:15;;;;;;;;;;;;;;;17.63;51.86;101592.88;5061432;28;1201;-56
2022/10/13 08:09:40;;;;;;;;;;;;;;;16.83;53.66;101587.84;5069250;28;1198;-57
2022/10/13 08:12:06;;;;;;;;;;;;;;;16.54;54.48;101592.69;5078178;28;1170;-56
2022/10/13 08:14:31;;;;;;;;;;;;;;;16.36;55.19;101594.63;5072800;28;2106;-55
2022/10/13 08:16:57;;;;;;;;;;;;;;;16.29;55.07;101598.66;5078055;28;1201;-57
2022/10/13 08:19:25;;;;;;;;;;;;;;;16.20;55.36;101593.59;5077923;28;1119;-57
2022/10/13 08:21:50;;;;;;;;;;;;;;;16.13;55.43;101597.56;5078022;28;1127;-58
2022/10/13 08:24:16;;;;;;;;;;;;;;;17.52;52.41;101599.38;5072334;28;1186;-53
2022/10/13 08:26:42;;;;;;;;;;;;;;;16.83;54.02;101606.25;5057611;28;1894;-55
2022/10/13 08:29:07;;;;;;;;;;;;;;;16.50;54.88;101602.53;5057484;28;1056;-56
2022/10/13 08:31:33;;;;;;;;;;;;;;;16.38;54.98;101602.59;5073346;28;1135;-56
2022/10/13 08:33:58;;;;;;;;;;;;;;;16.27;55.41;101596.16;5067096;28;1289;-57
2022/10/13 08:36:24;;;;;;;;;;;;;;;16.17;55.27;101590.50;5062738;28;1087;-58
2022/10/13 08:38:49;;;;;;;;;;;;;;;17.57;52.45;101585.66;5062406;28;1347;-58
2022/10/13 08:41:38;;;;;;;;;;;;;;;17.02;53.61;101593.88;5077153;28;1119;-55
2022/10/13 08:44:09;;;;;;;;;;;;;;;16.60;54.79;101595.22;5066174;28;1836;-56
2022/10/13 08:46:53;;;;;;;;;;;;;;;16.42;55.17;101599.13;5058942;28;1989;-56
2022/10/13 08:49:18;;;;;;;;;;;;;;;16.30;55.24;101597.53;5051609;28;1127;-55
2022/10/13 08:51:44;;;;;;;;;;;;;;;16.20;55.35;101595.47;5057157;28;1320;-56
2022/10/13 08:54:10;;;;;;;;;;;;;;;16.18;55.56;101603.13;5039233;28;1337;-55
2022/10/13 08:56:36;;;;;;;;;;;;;;;16.82;54.21;101604.59;5038677;28;1265;-56
2022/10/13 08:59:03;;;;;;;;;;;;;;;17.45;52.61;101589.41;5067663;28;1468;-57
2022/10/13 09:01:28;;;;;;;;;;;;;;;16.79;54.54;101589.47;5059050;28;1195;-56
2022/10/13 09:03:54;;;;;;;;;;;;;;;16.51;55.07;101595.91;5077184;28;1083;-55
2022/10/13 09:06:27;;;;;;;;;;;;;;;16.41;55.37;101600.19;5042397;28;1910;-56
2022/10/13 09:08:59;;;;;;;;;;;;;;;16.31;55.28;101600.03;5068541;28;1099;-56
2022/10/13 09:11:26;;;;;;;;;;;;;;;16.21;55.38;101600.72;5075656;28;1210;-55
2022/10/13 09:13:57;;;;;;;;;;;;;;;16.12;55.79;101599.50;5072617;28;1873;-55
2022/10/13 09:16:42;;;;;;;;;;;;;;;17.53;52.86;101587.25;5068574;28;1249;-55
2022/10/13 09:19:11;;;;;;;;;;;;;;;16.86;54.66;101597.50;5076822;28;1155;-56
2022/10/13 09:21:36;;;;;;;;;;;;;;;16.57;54.90;101600.41;5058891;28;1107;-53
2022/10/13 09:24:04;;;;;;;;;;;;;;;16.41;55.24;101596.59;5058155;28;952;-56
2022/10/13 09:26:30;;;;;;;;;;;;;;;16.31;55.33;101597.28;5076415;28;1905;-56
2022/10/13 09:28:55;;;;;;;;;;;;;;;16.23;55.66;101584.03;5065190;28;1381;-55
2022/10/13 09:31:24;;;;;;;;;;;;;;;16.12;55.70;101598.63;5072320;28;1345;-55
2022/10/13 09:33:57;;;;;;;;;;;;;;;17.57;52.68;101591.16;5076349;28;1170;-56
2022/10/13 09:36:22;;;;;;;;;;;;;;;16.82;54.55;101601.84;5076337;28;1114;-53
2022/10/13 09:39:10;;;;;;;;;;;;;;;16.52;55.17;101603.94;5076848;28;1209;-51
2022/10/13 09:41:36;;;;;;;;;;;;;;;16.33;55.46;101597.88;5056712;28;1291;-53
2022/10/13 09:44:06;;;;;;;;;;;;;;;16.17;55.77;101604.22;5066352;28;1972;-49
2022/10/13 09:46:45;;;;;;;;;;;;;;;16.83;54.83;101593.34;5054130;28;1981;-54
2022/10/13 09:49:19;;;;;;;;;;;;;;;17.08;54.00;101589.28;5074970;28;1130;-55
2022/10/13 09:51:45;;;;;;;;;;;;;;;16.56;55.10;101588.63;5075047;28;1004;-55
2022/10/13 09:54:35;;;;;;;;;;;;;;;16.39;55.39;101577.66;5059198;28;1084;-55
2022/10/13 09:57:03;;;;;;;;;;;;;;;16.25;55.51;101584.59;5075866;28;1186;-52
2022/10/13 09:59:32;;;;;;;;;;;;;;;16.15;55.89;101577.03;5075383;28;1178;-50
2022/10/13 10:01:57;;;;;;;;;;;;;;;16.28;55.67;101586.81;5058473;28;1088;-55
2022/10/13 10:04:23;;;;;;;;;;;;;;;17.61;52.54;101575.78;5075439;28;1102;-52
2022/10/13 10:06:49;;;;;;;;;;;;;;;16.78;54.65;101579.53;5058240;28;1988;-48
2022/10/13 10:09:35;;;;;;;;;;;;;;;16.51;55.11;101579.44;5074215;28;1130;-55
2022/10/13 10:12:00;;;;;;;;;;;;;;;16.33;55.44;101578.66;5073674;28;1562;-50
2022/10/13 10:14:26;;;;;;;;;;;;;;;16.24;55.47;101571.94;5064884;28;1824;-50
2022/10/13 10:16:54;;;;;;;;;;;;;;;16.35;55.76;101573.75;5075865;28;1071;-45
2022/10/13 10:19:40;;;;;;;;;;;;;;;17.39;53.21;101564.84;5042728;28;1072;-46
2022/10/13 10:22:28;;;;;;;;;;;;;;;16.69;54.80;101564.59;5059330;28;1428;-48
2022/10/13 10:24:56;;;;;;;;;;;;;;;16.45;55.48;101569.50;5037770;28;1981;-51
2022/10/13 10:27:33;;;;;;;;;;;;;;;16.25;55.87;101557.13;5038158;28;1105;-45
2022/10/13 10:30:00;;;;;;;;;;;;;;;16.16;55.52;101555.91;5040990;28;1068;-50
2022/10/13 10:32:38;;;;;;;;;;;;;;;16.97;54.22;101555.38;5055042;28;1317;-53
2022/10/13 10:35:07;;;;;;;;;;;;;;;17.04;53.83;101549.66;5074855;28;1242;-53
2022/10/13 10:37:34;;;;;;;;;;;;;;;16.55;55.25;101559.50;5075332;28;1202;-53
2022/10/13 10:40:00;;;;;;;;;;;;;;;16.39;55.65;101549.38;5075025;28;1234;-51
2022/10/13 10:42:26;;;;;;;;;;;;;;;16.30;55.39;101551.72;5074903;28;1298;-50
2022/10/13 10:44:52;;;;;;;;;;;;;;;16.19;55.76;101545.25;5065437;28;2065;-46
2022/10/13 10:47:24;;;;;;;;;;;;;;;16.14;55.79;101553.41;5073356;28;1099;-49
2022/10/13 10:49:50;;;;;;;;;;;;;;;16.65;54.87;101546.97;5051035;28;1099;-47
2022/10/13 10:52:18;;;;;;;;;;;;;;;17.49;53.23;101542.13;5042308;28;1211;-55
2022/10/13 10:54:54;;;;;;;;;;;;;;;16.95;54.89;101543.78;5059304;28;1088;-56
2022/10/13 10:57:19;;;;;;;;;;;;;;;16.68;55.53;101538.25;5075140;28;1159;-52
2022/10/13 10:59:44;;;;;;;;;;;;;;;16.42;56.13;101532.41;5074733;28;1035;-57
2022/10/13 11:02:13;;;;;;;;;;;;;;;16.46;55.91;101527.25;5078527;28;1055;-56
2022/10/13 11:04:42;;;;;;;;;;;;;;;16.46;56.12;101530.81;5061271;28;1236;-55
2022/10/13 11:07:23;;;;;;;;;;;;;;;16.43;56.33;101523.91;5079146;28;1984;-57
2022/10/13 11:09:52;;;;;;;;;;;;;;;16.36;56.22;101528.75;5077486;28;1177;-58
2022/10/13 11:12:18;;;;;;;;;;;;;;;16.19;56.41;101533.47;5072974;28;913;-54
2022/10/13 11:14:47;;;;;;;;;;;;;;;16.12;56.51;101530.91;5068075;28;2208;-57
2022/10/13 11:17:17;;;;;;;;;;;;;;;16.05;56.65;101525.56;5043369;28;1243;-57
2022/10/13 11:19:42;;;;;;;;;;;;;;;16.05;56.22;101522.00;5078846;28;1171;-56
2022/10/13 11:22:15;;;;;;;;;;;;;;;15.97;56.28;101515.03;5072228;28;1139;-53
2022/10/13 11:24:40;;;;;;;;;;;;;;;16.08;55.99;101519.56;5074777;28;1159;-56
2022/10/13 11:27:12;;;;;;;;;;;;;;;16.01;55.82;101516.19;5078867;28;1906;-55
2022/10/13 11:29:56;;;;;;;;;;;;;;;15.92;56.17;101509.44;5070614;28;1107;-52
2022/10/13 11:35:00;;;;;;;;;;;;;;;15.87;56.17;101503.91;5078623;28;1126;-59
2022/10/13 11:37:29;;;;;;;;;;;;;;;15.72;56.47;101502.56;5060901;28;1199;-57
2022/10/13 11:40:02;;;;;;;;;;;;;;;15.79;56.29;101502.41;5056213;28;1103;-57
2022/10/13 11:42:43;;;;;;;;;;;;;;;15.82;56.34;101495.59;5046028;28;1042;-58
2022/10/13 11:45:17;;;;;;;;;;;;;;;15.77;56.24;101488.09;5072473;28;2133;-60
2022/10/13 11:47:58;;;;;;;;;;;;;;;15.71;56.27;101495.41;5049190;28;1056;-56
2022/10/13 11:50:43;;;;;;;;;;;;;;;15.62;56.51;101496.91;5078362;28;1083;-56
2022/10/13 11:53:17;;;;;;;;;;;;;;;15.60;56.63;101487.25;5070431;28;1091;-58
2022/10/13 11:55:52;;;;;;;;;;;;;;;15.52;56.52;101489.34;5064873;28;1127;-57
2022/10/13 11:58:19;;;;;;;;;;;;;;;15.48;56.64;101490.09;5077935;28;1170;-57
2022/10/13 12:01:00;;;;;;;;;;;;;;;15.49;56.46;101480.81;5073282;28;1088;-58
2022/10/13 12:03:26;;;;;;;;;;;;;;;15.43;56.43;101484.53;5052964;28;1144;-54
2022/10/13 12:05:52;;;;;;;;;;;;;;;15.40;56.53;101478.47;5059152;28;1965;-59
2022/10/13 12:08:17;;;;;;;;;;;;;;;15.56;56.33;101481.47;5077875;28;1215;-59
2022/10/13 12:10:43;;;;;;;;;;;;;;;16.36;56.13;101486.75;5078203;28;1142;-63
2022/10/13 12:13:17;;;;;;;;;;;;;;;17.15;55.03;101482.72;5074647;28;1978;-63
2022/10/13 12:15:43;;;;;;;;;;;;;;;16.33;56.68;101468.88;5051269;28;1179;-60
2022/10/13 12:18:18;;;;;;;;;;;;;;;16.11;56.82;101454.31;5077690;28;1106;-62
2022/10/13 12:20:44;;;;;;;;;;;;;;;15.97;56.97;101470.31;5078096;28;1155;-60
2022/10/13 12:23:13;;;;;;;;;;;;;;;15.86;56.94;101461.94;5060199;28;1255;-58
2022/10/13 12:25:39;;;;;;;;;;;;;;;15.84;56.76;101453.13;5059888;28;2016;-59
2022/10/13 12:28:05;;;;;;;;;;;;;;;15.76;57.06;101463.69;5055614;28;1120;-58
2022/10/13 12:30:34;;;;;;;;;;;;;;;15.70;56.73;101457.28;5057865;28;1261;-58
2022/10/13 12:33:00;;;;;;;;;;;;;;;15.62;56.90;101455.78;5040604;28;1309;-59
2022/10/13 12:35:32;;;;;;;;;;;;;;;15.58;57.12;101457.34;5058265;28;1282;-58
2022/10/13 12:37:59;;;;;;;;;;;;;;;15.55;56.72;101457.88;5075363;28;1196;-60
2022/10/13 12:40:25;;;;;;;;;;;;;;;15.52;56.62;101450.97;5068144;28;1159;-59
2022/10/13 12:42:50;;;;;;;;;;;;;;;15.48;56.90;101443.50;5053769;28;1832;-64
2022/10/13 12:45:16;;;;;;;;;;;;;;;15.44;56.61;101443.16;5066384;28;1902;-61
2022/10/13 12:47:48;;;;;;;;;;;;;;;15.39;56.84;101437.63;5059124;28;1099;-61
2022/10/13 12:50:19;;;;;;;;;;;;;;;15.40;56.55;101434.63;5074525;28;1233;-58
2022/10/13 12:52:45;;;;;;;;;;;;;;;15.34;56.59;101446.56;5073875;28;1170;-63
2022/10/13 12:55:15;;;;;;;;;;;;;;;15.31;56.82;101432.56;5056722;28;1091;-61